createdAt,value
2022-12-28T00:04:52.527Z,12.53
2022-12-28T00:09:55.366Z,12.07
2022-12-28T00:14:58.739Z,12.83
2022-12-28T00:20:01.675Z,11.67
2022-12-28T00:25:04.901Z,11.80
2022-12-28T05:33:55.454Z,4.40
2022-12-28T05:38:58.358Z,5.57
2022-12-28T05:44:01.247Z,5.70
2022-12-28T05:49:04.295Z,7.70
2022-12-28T05:54:07.172Z,5.43
2022-12-28T05:59:10.367Z,7.10
2022-12-28T06:04:18.434Z,5.17
2022-12-28T06:09:21.409Z,5.27
2022-12-28T06:14:24.386Z,4.47
2022-12-28T06:19:27.261Z,7.57
2022-12-28T06:24:30.117Z,4.77
2022-12-28T06:29:32.957Z,5.60
2022-12-28T06:34:36.552Z,4.70
2022-12-28T06:39:39.432Z,4.80
2022-12-28T06:44:44.709Z,2.97
2022-12-28T06:49:47.860Z,5.13
2022-12-28T06:54:50.709Z,4.50
2022-12-28T06:59:53.554Z,6.30
2022-12-28T07:04:56.411Z,4.80
2022-12-28T07:09:59.291Z,4.13
2022-12-28T07:15:02.154Z,4.33
2022-12-28T07:20:05.472Z,4.40
2022-12-28T07:25:08.747Z,5.10
2022-12-28T07:30:12.494Z,4.53
2022-12-28T07:35:15.416Z,11.77
2022-12-28T07:40:18.255Z,6.30
2022-12-28T07:45:21.087Z,6.10
2022-12-28T07:50:23.963Z,6.13
2022-12-28T07:55:29.783Z,4.70
2022-12-28T08:00:32.660Z,5.07
2022-12-28T08:05:35.518Z,10.47
2022-12-28T08:10:38.421Z,8.97
2022-12-28T08:15:41.389Z,6.67
2022-12-28T08:20:44.592Z,9.27
2022-12-28T08:25:47.460Z,8.63
2022-12-28T08:30:50.342Z,6.90
2022-12-28T08:35:55.672Z,6.40
2022-12-28T08:41:00.577Z,9.80
2022-12-28T08:46:16.628Z,6.63
2022-12-28T08:51:24.759Z,10.77
2022-12-28T08:56:29.995Z,8.80
2022-12-28T09:01:42.676Z,8.80
2022-12-28T09:06:47.182Z,10.17
2022-12-28T09:11:50.322Z,6.73
2022-12-28T09:16:54.116Z,10.63
2022-12-28T09:21:57.012Z,10.70
2022-12-28T09:26:59.866Z,7.07
2022-12-28T09:32:02.716Z,8.00
2022-12-28T09:37:06.730Z,11.50
2022-12-28T09:42:16.969Z,9.13
2022-12-28T09:47:22.245Z,7.90
2022-12-28T09:52:30.587Z,10.17
2022-12-28T09:57:38.097Z,8.27
2022-12-28T10:02:41.794Z,10.53
2022-12-28T10:07:44.962Z,5.37
2022-12-28T10:12:48.460Z,8.93
2022-12-28T10:17:51.769Z,10.23
2022-12-28T10:22:56.942Z,7.93
2022-12-28T10:28:01.412Z,8.50
2022-12-28T10:33:04.642Z,7.47
2022-12-28T10:38:27.717Z,9.10
2022-12-28T10:43:34.380Z,9.37
2022-12-28T10:48:39.495Z,12.50
2022-12-28T10:53:46.183Z,9.93
2022-12-28T10:58:51.165Z,7.13
2022-12-28T11:03:57.057Z,7.27
2022-12-28T11:09:21.518Z,8.20
2022-12-28T11:14:27.059Z,9.07
2022-12-28T11:19:30.063Z,10.10
2022-12-28T11:24:39.194Z,8.03
2022-12-28T11:29:46.854Z,9.37
2022-12-28T11:34:50.436Z,7.93
2022-12-28T11:39:53.805Z,9.70
2022-12-28T11:44:56.764Z,7.17
2022-12-28T11:50:39.611Z,8.23
2022-12-28T11:56:10.134Z,5.37
2022-12-28T12:01:34.965Z,5.17
2022-12-28T12:06:44.192Z,6.63
2022-12-28T12:11:51.186Z,9.43
2022-12-28T12:17:13.236Z,7.87
2022-12-28T12:22:42.598Z,7.83
2022-12-28T12:27:57.795Z,6.27
2022-12-28T12:33:07.203Z,6.10
2022-12-28T12:38:15.542Z,8.13
2022-12-28T12:43:40.312Z,7.33
2022-12-28T12:49:00.845Z,8.67
2022-12-28T12:54:29.911Z,9.20
2022-12-28T13:00:12.098Z,4.93
2022-12-28T13:05:18.101Z,4.80
2022-12-28T13:10:31.334Z,3.83
2022-12-28T13:15:34.908Z,6.53
2022-12-28T13:20:37.759Z,5.30
2022-12-28T13:25:46.575Z,6.87
2022-12-28T13:31:19.651Z,4.97
2022-12-28T13:36:22.634Z,4.80
2022-12-28T13:41:26.604Z,6.23
2022-12-28T13:46:30.237Z,8.70
2022-12-28T13:51:36.660Z,9.03
2022-12-28T13:56:40.657Z,5.73
2022-12-28T14:01:46.600Z,10.87
2022-12-28T14:06:50.502Z,5.80
2022-12-28T14:11:53.412Z,6.73
2022-12-28T14:16:56.469Z,6.90
2022-12-28T14:21:59.767Z,7.50
2022-12-28T14:27:02.713Z,6.57
2022-12-28T14:32:07.450Z,8.00
2022-12-28T14:37:30.838Z,7.33
2022-12-28T14:42:35.387Z,10.37
2022-12-28T14:47:45.432Z,7.03
2022-12-28T14:52:50.641Z,8.90
2022-12-28T14:58:06.504Z,9.70
2022-12-28T15:03:20.230Z,8.87
2022-12-28T15:08:23.340Z,10.93
2022-12-28T15:13:27.315Z,6.07
2022-12-28T15:18:34.108Z,12.07
2022-12-28T15:23:36.940Z,13.07
2022-12-28T15:28:39.982Z,12.83
2022-12-28T15:33:42.915Z,8.00
2022-12-28T15:38:47.074Z,11.30
2022-12-28T15:43:50.070Z,16.43
2022-12-28T15:48:52.977Z,13.27
2022-12-28T15:53:55.823Z,13.97
2022-12-28T15:59:00.175Z,17.10
2022-12-28T16:04:03.641Z,16.63
2022-12-28T16:09:06.974Z,15.53
2022-12-28T16:14:15.083Z,14.37
2022-12-28T16:19:18.296Z,18.83
2022-12-28T16:24:21.401Z,17.93
2022-12-28T16:29:24.287Z,13.30
2022-12-28T16:34:28.466Z,17.33
2022-12-28T16:39:31.653Z,15.10
2022-12-28T16:44:34.806Z,15.23
2022-12-28T16:49:41.142Z,14.90
2022-12-28T16:54:44.097Z,12.80
2022-12-28T16:59:46.950Z,12.23
2022-12-28T17:04:49.741Z,11.50
2022-12-28T17:09:52.612Z,14.77
2022-12-28T17:14:55.940Z,9.83
2022-12-28T17:20:00.438Z,12.73
2022-12-28T17:25:03.474Z,14.57
2022-12-28T17:30:06.719Z,11.27
2022-12-28T17:35:10.376Z,11.53
2022-12-28T17:40:13.291Z,10.03
2022-12-28T17:45:16.218Z,14.40
2022-12-28T17:50:20.140Z,9.13
2022-12-28T17:55:23.094Z,7.87
2022-12-28T18:00:26.356Z,10.63
2022-12-28T18:05:31.794Z,11.40
2022-12-28T18:10:34.710Z,17.50
2022-12-28T18:15:37.889Z,10.13
2022-12-28T18:20:41.013Z,15.07
2022-12-28T18:25:43.908Z,10.93
2022-12-28T18:30:47.131Z,11.07
2022-12-28T18:35:52.946Z,12.43
2022-12-28T18:40:57.662Z,14.57
2022-12-28T18:46:02.923Z,15.23
2022-12-28T18:51:11.745Z,14.33
2022-12-28T18:56:20.163Z,11.67
2022-12-28T19:06:48.494Z,9.30
2022-12-28T19:11:52.837Z,11.90
2022-12-28T19:16:55.698Z,14.83
2022-12-28T19:21:59.245Z,9.83
2022-12-28T19:27:02.196Z,11.33
2022-12-28T19:32:05.357Z,7.90
2022-12-28T19:37:08.228Z,9.70
2022-12-28T19:42:11.151Z,8.00
2022-12-28T19:47:14.058Z,8.30
2022-12-28T19:52:16.952Z,10.33
2022-12-28T19:57:20.493Z,19.80
2022-12-28T20:02:23.510Z,8.93
2022-12-28T20:07:26.586Z,9.00
2022-12-28T20:12:29.437Z,6.70
2022-12-28T20:17:34.031Z,9.03
2022-12-28T20:22:40.851Z,9.07
2022-12-28T20:27:43.744Z,7.20
2022-12-28T20:32:46.677Z,9.97
2022-12-28T20:37:49.521Z,7.23
2022-12-28T20:43:10.821Z,7.47
2022-12-28T20:48:13.893Z,6.17
2022-12-28T20:53:16.783Z,7.70
2022-12-28T20:58:20.461Z,7.67
2022-12-28T21:03:23.330Z,6.17
2022-12-28T21:08:30.654Z,10.80
2022-12-28T21:13:35.281Z,8.93
2022-12-28T21:18:41.645Z,8.83
2022-12-28T21:23:44.890Z,7.33
2022-12-28T21:28:48.250Z,8.70
2022-12-28T21:33:55.863Z,6.97
2022-12-28T21:38:59.336Z,7.30
2022-12-28T21:44:02.190Z,5.33
2022-12-28T21:49:05.542Z,7.13
2022-12-28T21:54:19.665Z,5.27
2022-12-28T21:59:24.256Z,5.50
2022-12-28T22:04:46.180Z,5.77
2022-12-28T22:10:07.897Z,7.00
2022-12-28T22:15:31.005Z,6.57
2022-12-28T22:20:35.609Z,4.33
2022-12-28T22:25:39.124Z,6.53
2022-12-28T22:30:42.277Z,5.50
2022-12-28T22:35:45.154Z,6.60
2022-12-28T22:40:57.711Z,4.00
2022-12-28T22:46:05.114Z,8.20
2022-12-28T22:51:12.875Z,5.73
2022-12-28T22:56:19.861Z,7.63
2022-12-28T23:01:22.943Z,6.33
2022-12-28T23:06:25.883Z,5.00
2022-12-28T23:11:37.616Z,6.50
2022-12-28T23:16:40.545Z,6.73
2022-12-28T23:22:01.846Z,5.87
2022-12-28T23:27:20.344Z,8.17
2022-12-28T23:32:23.183Z,4.93
2022-12-28T23:37:26.021Z,3.47
2022-12-28T23:42:28.893Z,4.77
2022-12-28T23:47:31.808Z,5.60
2022-12-28T23:52:34.818Z,4.63
2022-12-28T23:57:38.142Z,6.73
